Time;durP1;ratioP1;P1;durP2;ratioP2;P2;SDS_P1;SDS_P2;PMS_P1;PMS_P2;Temp;Humidity;BMP_temperature;BMP_pressure;BME280_temperature;BME280_humidity;BME280_pressure;Samples;Min_cycle;Max_cycle;Signal;HPM_P1;HPM_P2
2022/04/17 00:03:45;;;;;;;0.47;0.40;;;;;;;17.37;55.52;97509.91;10329223;28;20061;-22
2022/04/17 00:08:45;;;;;;;0.40;0.40;;;;;;;17.58;57.87;97513.66;10337508;28;20095;-22
2022/04/17 00:13:48;;;;;;;0.43;0.43;;;;;;;17.65;57.24;97507.03;10353379;28;20500;-21
2022/04/17 00:18:48;;;;;;;0.73;0.47;;;;;;;17.54;55.91;97504.31;10329089;28;20377;-21
2022/04/17 00:23:49;;;;;;;0.30;0.30;;;;;;;17.45;55.25;97496.56;10329605;28;20038;-22
2022/04/17 00:28:49;;;;;;;0.47;0.47;;;;;;;17.41;55.29;97499.03;10328966;28;20038;-22
2022/04/17 00:33:50;;;;;;;0.27;0.23;;;;;;;17.38;55.17;97491.34;10338094;28;20048;-22
2022/04/17 00:38:50;;;;;;;0.45;0.35;;;;;;;17.28;55.17;97464.16;10369327;28;20045;-22
2022/04/17 00:43:50;;;;;;;0.30;0.30;;;;;;;17.34;55.23;97469.34;10355190;28;20038;-21
2022/04/17 00:48:51;;;;;;;0.40;0.40;;;;;;;17.35;55.26;97465.97;10327429;28;20096;-22
2022/04/17 00:53:53;;;;;;;0.50;0.50;;;;;;;17.33;55.04;97457.53;10328110;28;20042;-21
2022/04/17 00:58:53;;;;;;;0.40;0.40;;;;;;;17.34;55.18;97466.81;10327597;28;20029;-22
2022/04/17 01:03:54;;;;;;;0.95;0.50;;;;;;;17.34;55.06;97474.41;10327061;28;20038;-21
2022/04/17 01:08:54;;;;;;;0.50;0.50;;;;;;;17.33;55.23;97473.53;10336514;28;20036;-21
2022/04/17 01:13:55;;;;;;;0.50;0.50;;;;;;;17.44;57.52;97467.03;10365324;28;20037;-22
2022/04/17 01:19:01;;;;;;;0.50;0.50;;;;;;;17.59;57.25;97469.78;10356195;28;20034;-22
2022/04/17 01:29:20;;;;;;;0.35;0.30;;;;;;;17.40;55.05;97450.06;10326775;28;20085;-21
2022/04/17 01:34:22;;;;;;;0.20;0.20;;;;;;;17.38;55.21;97446.66;10326259;28;20116;-22
2022/04/17 01:39:23;;;;;;;0.60;0.50;;;;;;;17.34;55.02;97444.88;10326769;28;20065;-22
2022/04/17 01:44:25;;;;;;;0.30;0.30;;;;;;;17.33;55.12;97444.88;10341626;28;20034;-22
2022/04/17 01:49:25;;;;;;;0.40;0.40;;;;;;;17.31;55.01;97438.94;10351994;28;20046;-21
2022/04/17 01:54:27;;;;;;;0.57;0.50;;;;;;;17.32;55.05;97448.22;10326729;28;20409;-21
2022/04/17 01:59:28;;;;;;;0.40;0.40;;;;;;;17.32;54.84;97451.59;10326416;28;20038;-22
2022/04/17 02:04:32;;;;;;;0.40;0.40;;;;;;;17.32;54.85;97440.63;10325790;28;20403;-21
2022/04/17 02:09:33;;;;;;;0.50;0.40;;;;;;;17.30;54.87;97432.13;10340608;28;20033;-21
2022/04/17 02:14:34;;;;;;;0.35;0.35;;;;;;;17.30;54.98;97425.41;10335517;28;20041;-22
2022/04/17 02:19:35;;;;;;;0.40;0.30;;;;;;;17.31;55.08;97423.75;10325808;28;20038;-21
2022/04/17 02:24:35;;;;;;;0.55;0.55;;;;;;;17.52;57.14;97431.69;10326827;28;20038;-22
2022/04/17 02:29:36;;;;;;;0.60;0.60;;;;;;;17.59;57.06;97428.41;10356253;28;20388;-22
2022/04/17 02:34:37;;;;;;;0.40;0.40;;;;;;;17.48;55.59;97419.81;10356789;28;20042;-22
2022/04/17 02:39:38;;;;;;;0.40;0.40;;;;;;;17.37;55.25;97413.72;10332541;28;20073;-22
2022/04/17 02:44:38;;;;;;;0.40;0.30;;;;;;;17.35;54.93;97420.41;10332405;28;20041;-21
2022/04/17 02:49:38;;;;;;;0.50;0.50;;;;;;;17.34;54.98;97423.78;10332617;28;20038;-22
2022/04/17 02:54:39;;;;;;;0.30;0.30;;;;;;;17.32;54.99;97410.25;10332569;28;20121;-20
2022/04/17 02:59:39;;;;;;;0.60;0.40;;;;;;;17.31;55.04;97411.94;10333014;28;20034;-21
2022/04/17 03:09:58;;;;;;;0.30;0.30;;;;;;;17.30;54.83;97399.25;10349777;28;20040;-22
2022/04/17 03:14:59;;;;;;;0.30;0.30;;;;;;;17.30;54.79;97394.19;10349886;28;20499;-22
2022/04/17 03:20:00;;;;;;;0.30;0.30;;;;;;;17.29;54.95;97395.88;10331796;28;20197;-21
2022/04/17 03:25:04;;;;;;;0.50;0.50;;;;;;;17.31;55.02;97398.44;10330945;28;20038;-22
2022/04/17 03:30:04;;;;;;;0.60;0.60;;;;;;;17.45;57.36;97396.97;10331119;28;20556;-22
2022/04/17 03:35:05;;;;;;;0.60;0.60;;;;;;;17.55;57.81;97393.75;10330486;28;20038;-22
2022/04/17 03:40:06;;;;;;;0.50;0.50;;;;;;;17.54;56.31;97386.97;10330022;28;20038;-21
2022/04/17 03:45:11;;;;;;;0.50;0.50;;;;;;;17.41;55.01;97377.53;10330473;28;20034;-22
2022/04/17 03:50:12;;;;;;;0.55;0.55;;;;;;;17.36;55.00;97376.59;10330435;28;20484;-21
2022/04/17 03:55:13;;;;;;;0.28;0.28;;;;;;;17.17;54.97;97350.13;10330468;28;20030;-21
2022/04/17 04:00:15;;;;;;;0.52;0.40;;;;;;;17.30;54.89;97374.78;10329421;28;20038;-22
2022/04/17 04:05:16;;;;;;;0.38;0.38;;;;;;;17.29;54.90;97369.69;10329115;28;20526;-21
2022/04/17 04:10:16;;;;;;;0.40;0.40;;;;;;;17.31;55.09;97383.25;10349784;28;20038;-21
2022/04/17 04:15:17;;;;;;;0.57;0.43;;;;;;;17.30;55.03;97381.53;10338870;28;20030;-21
2022/04/17 04:20:17;;;;;;;0.50;0.50;;;;;;;17.30;55.13;97391.66;10328881;28;20477;-21
2022/04/17 04:25:18;;;;;;;0.60;0.60;;;;;;;17.30;54.81;97391.66;10328879;28;20277;-23
2022/04/17 04:30:18;;;;;;;1.07;0.50;;;;;;;17.28;54.76;97391.66;10329250;28;20408;-22
2022/04/17 04:35:19;;;;;;;0.60;0.60;;;;;;;17.30;54.91;97396.72;10328566;28;20058;-22
2022/04/17 04:40:19;;;;;;;0.85;0.75;;;;;;;17.45;57.35;97392.78;10328542;28;20038;-22
2022/04/17 04:50:39;;;;;;;0.40;0.40;;;;;;;17.41;55.68;97387.66;10327966;28;20116;-21
2022/04/17 04:55:40;;;;;;;0.35;0.35;;;;;;;17.36;54.93;97391.78;10328356;28;20258;-22
2022/04/17 05:00:40;;;;;;;0.40;0.40;;;;;;;17.30;54.96;97401.78;10328053;28;20121;-21
2022/04/17 05:05:41;;;;;;;0.57;0.57;;;;;;;17.26;54.94;97397.50;10351700;28;20030;-22
2022/04/17 05:10:41;;;;;;;0.60;0.60;;;;;;;17.27;54.98;97399.19;10368256;28;20404;-22
2022/04/17 05:15:41;;;;;;;0.50;0.40;;;;;;;17.27;55.09;97392.47;10339752;28;20072;-21
2022/04/17 05:20:42;;;;;;;0.40;0.40;;;;;;;17.26;54.87;97389.91;10352141;28;20053;-21
2022/04/17 05:25:42;;;;;;;0.30;0.30;;;;;;;17.17;54.97;97369.53;10367876;28;20038;-22
2022/04/17 05:30:44;;;;;;;0.50;0.50;;;;;;;17.25;54.75;97390.75;10339982;28;20034;-22
2022/04/17 05:35:45;;;;;;;0.40;0.40;;;;;;;17.24;54.71;97386.50;10351626;28;20578;-21
2022/04/17 05:40:49;;;;;;;0.40;0.40;;;;;;;17.24;54.95;97372.16;10367693;28;20037;-21
2022/04/17 05:45:50;;;;;;;0.70;0.70;;;;;;;17.35;57.40;97385.00;10333086;28;20497;-21
2022/04/17 05:50:50;;;;;;;0.40;0.40;;;;;;;17.47;57.12;97375.06;10326168;28;20081;-22
2022/04/17 05:55:51;;;;;;;0.73;0.70;;;;;;;17.48;56.64;97376.78;10329101;28;20116;-23
2022/04/17 06:00:53;;;;;;;0.50;0.40;;;;;;;17.37;55.05;97378.28;10371152;28;20029;-21
2022/04/17 06:05:53;;;;;;;0.63;0.60;;;;;;;17.29;54.75;97374.75;10347376;28;20378;-21
2022/04/17 06:10:54;;;;;;;0.55;0.55;;;;;;;17.25;54.67;97358.69;10359704;28;20034;-22
2022/04/17 06:15:54;;;;;;;0.52;0.52;;;;;;;17.23;54.87;97354.44;10373381;28;20042;-22
2022/04/17 06:20:55;;;;;;;0.47;0.47;;;;;;;17.23;54.93;97359.50;10347323;28;20298;-21
2022/04/17 06:25:55;;;;;;;0.50;0.43;;;;;;;17.21;54.64;97361.13;10333767;28;20730;-22
2022/04/17 06:30:56;;;;;;;0.47;0.47;;;;;;;17.20;55.04;97367.03;10333402;28;20523;-22
2022/04/17 06:35:56;;;;;;;0.47;0.40;;;;;;;17.19;54.88;97373.78;10359683;28;20527;-22
2022/04/17 06:40:56;;;;;;;0.30;0.30;;;;;;;17.18;54.77;97361.09;10369267;28;20041;-23
2022/04/17 06:45:57;;;;;;;0.53;0.53;;;;;;;17.18;54.73;97372.09;10332582;28;20030;-21
2022/04/17 06:50:57;;;;;;;0.37;0.37;;;;;;;17.18;54.87;97351.84;10332784;28;20066;-22
2022/04/17 06:55:58;;;;;;;0.50;0.50;;;;;;;17.36;56.46;97334.44;10332417;28;20038;-21
2022/04/17 07:00:58;;;;;;;0.60;0.43;;;;;;;17.45;57.68;97326.97;10331308;28;20042;-21
2022/04/17 07:05:59;;;;;;;0.60;0.52;;;;;;;17.40;55.64;97327.75;10332551;28;20551;-21
2022/04/17 07:10:59;;;;;;;0.30;0.30;;;;;;;17.27;54.49;97341.88;10356934;28;20531;-22
2022/04/17 07:15:59;;;;;;;0.57;0.57;;;;;;;17.24;54.72;97351.09;10332190;28;20302;-21
2022/04/17 07:21:00;;;;;;;0.57;0.33;;;;;;;17.22;54.79;97340.06;10331702;28;20069;-21
2022/04/17 07:26:00;;;;;;;0.43;0.43;;;;;;;17.20;54.86;97331.59;10331067;28;20035;-22
2022/04/17 07:31:01;;;;;;;0.55;0.55;;;;;;;17.20;54.87;97334.16;10331636;28;20048;-21
2022/04/17 07:36:02;;;;;;;0.50;0.50;;;;;;;17.19;54.75;97327.38;10357886;28;20033;-22
2022/04/17 07:41:03;;;;;;;0.40;0.40;;;;;;;17.17;54.54;97313.88;10371722;28;20038;-23
2022/04/17 07:46:04;;;;;;;0.30;0.30;;;;;;;17.18;54.65;97310.50;10331109;28;20046;-21
2022/04/17 07:51:04;;;;;;;0.50;0.50;;;;;;;17.18;54.81;97313.03;10330796;28;20484;-21
2022/04/17 07:56:05;;;;;;;0.47;0.47;;;;;;;17.17;54.62;97303.75;10330370;28;20297;-22
2022/04/17 08:01:11;;;;;;;0.50;0.50;;;;;;;17.23;56.20;97306.38;10330367;28;20042;-21
2022/04/17 08:06:17;;;;;;;0.40;0.40;;;;;;;17.40;56.60;97305.78;10358134;28;20459;-22
2022/04/17 08:11:18;;;;;;;0.50;0.50;;;;;;;17.43;56.00;97305.84;10370111;28;20480;-21
2022/04/17 08:16:19;;;;;;;0.63;0.50;;;;;;;17.31;54.87;97307.34;10329989;28;20041;-24
2022/04/17 08:21:19;;;;;;;0.70;0.60;;;;;;;17.27;54.66;97310.63;10359388;28;20041;-22
2022/04/17 08:26:19;;;;;;;0.50;0.47;;;;;;;17.22;54.66;97302.13;10369130;28;20037;-23
2022/04/17 08:31:20;;;;;;;0.43;0.43;;;;;;;17.20;54.70;97303.78;10336225;28;20045;-21
2022/04/17 08:36:20;;;;;;;0.30;0.30;;;;;;;17.20;54.86;97303.78;10328425;28;20038;-21
2022/04/17 08:41:22;;;;;;;0.30;0.30;;;;;;;17.19;54.56;97295.34;10337933;28;20087;-23
2022/04/17 08:46:23;;;;;;;0.52;0.30;;;;;;;17.19;54.73;97291.97;10368449;28;20370;-21
2022/04/17 08:51:24;;;;;;;0.57;0.57;;;;;;;17.18;54.59;97288.59;10337306;28;20034;-22
2022/04/17 08:56:26;;;;;;;0.50;0.50;;;;;;;17.18;54.51;97290.25;10328066;28;20035;-21
2022/04/17 09:01:26;;;;;;;0.43;0.43;;;;;;;17.17;54.55;97273.38;10363385;28;20041;-21
2022/04/17 09:06:28;;;;;;;0.32;0.32;;;;;;;17.16;54.53;97256.50;10336473;28;20038;-22
2022/04/17 09:11:31;;;;;;;0.52;0.50;;;;;;;17.31;57.01;97251.66;10357989;28;20038;-22
2022/04/17 09:16:36;;;;;;;0.70;0.60;;;;;;;17.42;56.97;97240.00;10326728;28;20060;-22
2022/04/17 09:21:36;;;;;;;0.50;0.45;;;;;;;17.40;56.01;97241.69;10326969;28;20112;-21
2022/04/17 09:26:36;;;;;;;0.47;0.40;;;;;;;17.28;54.88;97241.47;10327285;28;20034;-21
2022/04/17 09:31:37;;;;;;;0.80;0.33;;;;;;;17.24;54.55;97239.75;10327317;28;20045;-21
2022/04/17 09:36:38;;;;;;;0.50;0.50;;;;;;;17.21;55.01;97244.75;10331949;28;20407;-21
2022/04/17 09:41:55;;;;;;;0.60;0.52;;;;;;;17.11;54.84;97222.69;10334836;28;20077;-22
2022/04/17 09:46:56;;;;;;;0.40;0.40;;;;;;;17.17;54.55;97232.91;10334951;28;20489;-22
2022/04/17 09:52:07;;;;;;;0.47;0.47;;;;;;;17.17;54.60;97227.84;10334901;28;20042;-22
2022/04/17 09:57:07;;;;;;;0.43;0.43;;;;;;;17.17;54.67;97228.66;10335315;28;20038;-22
2022/04/17 10:02:12;;;;;;;0.60;0.60;;;;;;;17.15;54.83;97225.28;10334604;28;20496;-22
2022/04/17 10:07:14;;;;;;;0.50;0.50;;;;;;;17.16;54.63;97226.16;10333835;28;20294;-22
2022/04/17 10:12:19;;;;;;;0.52;0.50;;;;;;;17.13;54.61;97226.09;10367999;28;20504;-21
2022/04/17 10:17:21;;;;;;;0.45;0.45;;;;;;;17.15;54.88;97209.28;10375081;28;20095;-21
2022/04/17 10:22:26;;;;;;;0.60;0.60;;;;;;;17.35;57.67;97212.88;10335279;28;20034;-21
2022/04/17 10:27:35;;;;;;;0.43;0.40;;;;;;;17.42;56.57;97209.63;10334090;28;20034;-21
2022/04/17 10:32:45;;;;;;;0.50;0.50;;;;;;;17.25;54.91;97184.06;10333818;28;20042;-21
2022/04/17 10:38:23;;;;;;;0.55;0.55;;;;;;;17.25;54.74;97181.53;10333479;28;20038;-22
2022/04/17 10:43:24;;;;;;;0.63;0.43;;;;;;;17.16;54.75;97183.97;10333057;28;20038;-22
2022/04/17 10:48:27;;;;;;;0.68;0.68;;;;;;;17.13;55.04;97175.47;10338631;28;20477;-21
2022/04/17 10:53:29;;;;;;;0.43;0.43;;;;;;;17.09;54.83;97158.59;10373417;28;20400;-21
2022/04/17 10:58:54;;;;;;;0.35;0.30;;;;;;;17.12;54.70;97161.13;10363790;28;20042;-22
2022/04/17 11:03:54;;;;;;;0.35;0.35;;;;;;;17.13;54.64;97145.13;10341845;28;20507;-23
2022/04/17 11:08:57;;;;;;;0.40;0.33;;;;;;;17.13;54.73;97142.59;10373210;28;20040;-22
2022/04/17 11:14:09;;;;;;;0.30;0.30;;;;;;;17.11;54.64;97126.56;10343222;28;20305;-21
2022/04/17 11:19:11;;;;;;;0.35;0.35;;;;;;;17.11;54.86;97117.31;10331909;28;20062;-21
2022/04/17 11:24:12;;;;;;;0.30;0.20;;;;;;;17.13;54.65;97129.94;10331926;28;20030;-21
2022/04/17 11:29:12;;;;;;;0.70;0.43;;;;;;;17.27;57.17;97133.50;10355539;28;20042;-21
2022/04/17 11:34:12;;;;;;;0.37;0.37;;;;;;;17.39;57.43;97123.53;10358190;28;20293;-22
2022/04/17 11:39:13;;;;;;;0.33;0.33;;;;;;;17.35;55.88;97112.50;10331763;28;20553;-21
2022/04/17 11:44:13;;;;;;;0.50;0.50;;;;;;;17.26;54.98;97109.03;10330920;28;20401;-22
2022/04/17 11:49:13;;;;;;;0.38;0.38;;;;;;;17.19;55.01;97109.78;10330470;28;20099;-22
2022/04/17 11:54:32;;;;;;;0.40;0.40;;;;;;;17.15;54.90;97116.50;10330417;28;20038;-21
2022/04/17 11:59:45;;;;;;;0.40;0.40;;;;;;;17.12;54.90;97108.00;10329489;28;20045;-21
2022/04/17 12:04:48;;;;;;;0.40;0.38;;;;;;;17.13;54.99;97100.44;10329325;28;20069;-23
2022/04/17 12:09:49;;;;;;;0.40;0.40;;;;;;;17.13;54.86;97089.47;10347072;28;20040;-21
2022/04/17 12:14:53;;;;;;;0.50;0.40;;;;;;;17.12;54.97;97080.19;10343472;28;20035;-21
2022/04/17 12:19:53;;;;;;;0.40;0.40;;;;;;;17.12;54.82;97072.59;10329235;28;20036;-21
2022/04/17 12:24:53;;;;;;;0.40;0.40;;;;;;;17.11;54.71;97064.19;10329249;28;20038;-21
2022/04/17 12:29:56;;;;;;;0.40;0.40;;;;;;;17.04;54.77;97057.34;10329327;28;20253;-22
2022/04/17 12:35:02;;;;;;;0.50;0.50;;;;;;;17.13;55.11;97056.59;10346756;28;20034;-21
2022/04/17 12:40:20;;;;;;;0.60;0.60;;;;;;;17.30;57.72;97048.34;10369550;28;20043;-21
2022/04/17 12:45:26;;;;;;;0.38;0.38;;;;;;;17.40;56.69;97046.78;10336047;28;20796;-22
2022/04/17 12:50:26;;;;;;;0.30;0.30;;;;;;;17.28;55.20;97034.84;10328695;28;20045;-21
2022/04/17 12:55:34;;;;;;;0.30;0.30;;;;;;;17.22;54.90;97016.19;10327786;28;20034;-21
2022/04/17 13:00:35;;;;;;;0.45;0.32;;;;;;;17.17;55.28;97013.63;10327968;28;20372;-21
2022/04/17 13:05:35;;;;;;;0.13;0.13;;;;;;;17.17;55.12;97005.19;10327735;28;20433;-21
2022/04/17 13:10:37;;;;;;;0.40;0.40;;;;;;;17.13;54.85;96994.19;10350523;28;20034;-22
2022/04/17 13:15:38;;;;;;;0.40;0.38;;;;;;;17.11;55.14;97005.13;10331952;28;20301;-21
2022/04/17 13:20:38;;;;;;;0.30;0.30;;;;;;;17.08;55.17;96989.94;10351852;28;20041;-23
2022/04/17 13:25:38;;;;;;;0.33;0.33;;;;;;;17.10;54.81;96990.78;10365964;28;20034;-22
2022/04/17 13:30:39;;;;;;;0.40;0.40;;;;;;;17.10;54.84;96975.63;10327546;28;20385;-21
2022/04/17 13:35:39;;;;;;;0.30;0.30;;;;;;;17.09;55.01;96972.22;10327218;28;20121;-21
2022/04/17 13:40:40;;;;;;;0.30;0.30;;;;;;;17.09;54.99;96971.38;10326597;28;20046;-22
2022/04/17 13:45:40;;;;;;;0.68;0.50;;;;;;;17.23;57.03;96959.72;10357818;28;20280;-22
2022/04/17 13:50:40;;;;;;;0.50;0.50;;;;;;;17.34;57.50;96953.06;10342028;28;20529;-22
2022/04/17 13:55:43;;;;;;;0.37;0.37;;;;;;;17.35;55.90;96954.75;10325809;28;20030;-22
2022/04/17 14:00:43;;;;;;;0.50;0.50;;;;;;;17.25;55.25;96955.50;10324558;28;20453;-22
2022/04/17 14:05:43;;;;;;;0.30;0.30;;;;;;;17.20;54.98;96962.22;10326753;28;20101;-24
2022/04/17 14:10:44;;;;;;;0.30;0.30;;;;;;;17.16;55.07;96950.38;10350619;28;20065;-22
2022/04/17 14:15:45;;;;;;;0.40;0.30;;;;;;;17.14;55.16;96944.47;10333332;28;20708;-21
2022/04/17 14:20:45;;;;;;;0.40;0.37;;;;;;;17.11;54.96;96927.56;10328437;28;20129;-22
2022/04/17 14:25:45;;;;;;;0.50;0.50;;;;;;;17.13;54.98;96927.56;10333944;28;20642;-22
2022/04/17 14:30:46;;;;;;;0.40;0.40;;;;;;;17.08;55.05;96919.94;10333939;28;20513;-21
2022/04/17 14:35:47;;;;;;;0.35;0.30;;;;;;;17.12;55.06;96928.41;10333045;28;20523;-21
2022/04/17 14:40:47;;;;;;;0.30;0.30;;;;;;;17.08;55.00;96929.22;10333113;28;20072;-21
2022/04/17 14:45:49;;;;;;;0.30;0.30;;;;;;;17.11;55.07;96934.31;10332617;28;20069;-22
2022/04/17 14:50:50;;;;;;;0.20;0.20;;;;;;;17.10;54.99;96932.59;10343233;28;20380;-22
2022/04/17 14:55:51;;;;;;;0.30;0.30;;;;;;;17.30;57.59;96924.34;10332901;28;20540;-22
2022/04/17 15:00:52;;;;;;;0.52;0.47;;;;;;;17.37;57.76;96917.69;10332689;28;20066;-22
2022/04/17 15:05:54;;;;;;;0.43;0.40;;;;;;;17.31;55.37;96905.78;10357776;28;20544;-21
2022/04/17 15:10:54;;;;;;;0.50;0.40;;;;;;;17.20;55.16;96898.97;10373000;28;20037;-22
2022/04/17 15:15:54;;;;;;;0.50;0.30;;;;;;;17.17;55.20;96891.34;10343141;28;20030;-22
2022/04/17 15:20:55;;;;;;;0.30;0.30;;;;;;;17.13;55.04;96893.00;10332418;28;20039;-21
2022/04/17 15:25:56;;;;;;;0.40;0.40;;;;;;;17.12;55.23;96895.50;10331502;28;20054;-21
2022/04/17 15:30:56;;;;;;;0.30;0.30;;;;;;;17.10;55.16;96887.06;10331775;28;20038;-22
2022/04/17 15:35:56;;;;;;;0.30;0.30;;;;;;;17.09;55.24;96885.38;10356088;28;20710;-22
2022/04/17 15:40:57;;;;;;;0.43;0.43;;;;;;;17.09;55.15;96880.31;10370931;28;20056;-22
2022/04/17 15:51:17;;;;;;;0.40;0.32;;;;;;;17.09;55.17;96876.09;10330407;28;20564;-22
2022/04/17 15:56:18;;;;;;;0.32;0.32;;;;;;;17.09;55.03;96871.03;10330941;28;20038;-21
2022/04/17 16:01:19;;;;;;;0.32;0.30;;;;;;;17.18;57.43;96876.19;10370995;28;20459;-21
2022/04/17 16:06:20;;;;;;;0.30;0.30;;;;;;;17.34;58.18;96872.09;10339335;28;20531;-22
2022/04/17 16:11:21;;;;;;;0.40;0.40;;;;;;;17.38;56.09;96869.63;10355064;28;20046;-21
2022/04/17 16:16:21;;;;;;;0.22;0.22;;;;;;;17.25;55.43;96866.97;10328866;28;20811;-22
2022/04/17 16:21:22;;;;;;;0.50;0.50;;;;;;;17.18;55.16;96855.09;10358857;28;20381;-21
2022/04/17 16:26:22;;;;;;;0.30;0.30;;;;;;;17.13;55.26;96862.66;10364154;28;20030;-21
2022/04/17 16:31:23;;;;;;;0.40;0.20;;;;;;;17.11;55.35;96860.94;10329760;28;20485;-21
2022/04/17 16:36:24;;;;;;;0.40;0.40;;;;;;;17.10;55.15;96856.72;10328158;28;20035;-22
2022/04/17 16:41:25;;;;;;;0.90;0.60;;;;;;;17.10;55.12;96859.25;10328295;28;20057;-22
2022/04/17 16:46:25;;;;;;;0.20;0.20;;;;;;;17.09;55.17;96858.38;10327700;28;20319;-21
2022/04/17 16:51:25;;;;;;;0.30;0.30;;;;;;;17.09;55.17;96844.91;10328201;28;20046;-21
2022/04/17 16:56:26;;;;;;;0.40;0.40;;;;;;;17.09;55.09;96845.75;10331465;28;20140;-21
2022/04/17 17:01:26;;;;;;;0.40;0.40;;;;;;;17.01;55.04;96826.31;10369138;28;20049;-20
2022/04/17 17:06:26;;;;;;;0.20;0.20;;;;;;;17.09;55.04;96844.91;10336816;28;20667;-21
2022/04/17 17:11:27;;;;;;;0.43;0.43;;;;;;;17.26;57.72;96850.94;10349546;28;20412;-22
2022/04/17 17:16:28;;;;;;;0.28;0.28;;;;;;;17.37;57.76;96854.41;10327228;28;20030;-22
2022/04/17 17:21:28;;;;;;;0.30;0.30;;;;;;;17.32;56.12;96856.03;10327712;28;20030;-22
2022/04/17 17:26:28;;;;;;;0.30;0.30;;;;;;;17.22;55.35;96866.91;10327493;28;20041;-22
2022/04/17 17:31:29;;;;;;;0.30;0.30;;;;;;;17.08;55.17;96848.28;10327356;28;20038;-21
2022/04/17 17:36:29;;;;;;;0.30;0.30;;;;;;;17.12;55.01;96872.75;10327143;28;20668;-22
2022/04/17 17:41:29;;;;;;;0.30;0.30;;;;;;;17.10;54.98;96857.59;10327284;28;20088;-23
2022/04/17 17:46:30;;;;;;;0.30;0.30;;;;;;;17.10;55.37;96876.97;10326774;28;20317;-21
2022/04/17 17:51:30;;;;;;;0.30;0.30;;;;;;;17.10;55.24;96872.75;10357397;28;20041;-22
2022/04/17 17:56:30;;;;;;;0.20;0.20;;;;;;;17.09;55.13;96868.50;10361883;28;20061;-21
2022/04/17 18:01:31;;;;;;;0.20;0.20;;;;;;;17.08;54.70;96869.34;10334348;28;20285;-23
2022/04/17 18:06:31;;;;;;;0.37;0.37;;;;;;;17.09;55.29;96870.22;10334142;28;20088;-22
2022/04/17 18:16:50;;;;;;;0.35;0.35;;;;;;;17.02;55.34;96863.41;10374269;28;20072;-21
2022/04/17 18:22:37;;;;;;;0.37;0.37;;;;;;;17.30;58.12;96885.53;10339657;28;20521;-21
2022/04/17 18:27:13;;;;;;;0.30;0.30;;;;;;;17.34;57.09;96875.44;10334947;28;20039;-22
2022/04/17 18:32:13;;;;;;;0.40;0.40;;;;;;;17.27;55.72;96885.53;10373645;28;20092;-22
2022/04/17 18:37:13;;;;;;;0.30;0.30;;;;;;;17.19;55.07;96897.25;10336370;28;20073;-22
2022/04/17 18:42:14;;;;;;;0.20;0.20;;;;;;;17.14;55.31;96898.94;10332945;28;20865;-22
2022/04/17 18:47:14;;;;;;;0.57;0.40;;;;;;;17.13;55.20;96899.75;10335201;28;20523;-23
2022/04/17 18:52:14;;;;;;;0.40;0.40;;;;;;;17.12;55.17;96905.63;10334405;28;20037;-22
2022/04/17 18:57:15;;;;;;;0.23;0.23;;;;;;;17.10;55.25;96893.00;10334846;28;20034;-22
2022/04/17 19:02:15;;;;;;;0.30;0.30;;;;;;;17.10;55.39;96909.84;10334249;28;20547;-22
2022/04/17 19:07:16;;;;;;;0.30;0.30;;;;;;;17.10;55.12;96905.66;10334567;28;20358;-21
2022/04/17 19:17:35;;;;;;;0.30;0.30;;;;;;;17.10;55.12;96914.91;10334158;28;20061;-22
2022/04/17 19:22:36;;;;;;;0.37;0.37;;;;;;;17.09;54.93;96913.22;10334525;28;20049;-22
2022/04/17 19:27:36;;;;;;;0.30;0.30;;;;;;;17.21;57.53;96918.34;10351124;28;20042;-23
2022/04/17 19:37:56;;;;;;;0.35;0.30;;;;;;;17.34;56.31;96922.69;10332682;28;20544;-21
2022/04/17 19:42:56;;;;;;;0.20;0.20;;;;;;;17.24;55.72;96915.88;10333000;28;20049;-22
2022/04/17 19:47:57;;;;;;;0.33;0.30;;;;;;;17.15;55.20;96908.22;10334773;28;20034;-22
2022/04/17 19:52:57;;;;;;;0.47;0.47;;;;;;;17.15;55.04;96915.81;10372727;28;20042;-22
2022/04/17 19:57:58;;;;;;;0.37;0.37;;;;;;;17.12;55.06;96918.28;10369007;28;20711;-22
2022/04/17 20:02:58;;;;;;;0.38;0.32;;;;;;;17.12;55.29;96920.81;10332686;28;20340;-22
2022/04/17 20:07:59;;;;;;;0.30;0.20;;;;;;;17.09;55.29;96920.81;10331822;28;20046;-21
2022/04/17 20:12:59;;;;;;;0.47;0.40;;;;;;;17.09;55.11;96914.03;10373159;28;20420;-21
2022/04/17 20:17:59;;;;;;;0.30;0.30;;;;;;;17.03;54.94;96897.97;10341948;28;20133;-22
2022/04/17 20:23:00;;;;;;;0.30;0.30;;;;;;;17.05;55.07;96902.22;10331037;28;20041;-21
2022/04/17 20:28:00;;;;;;;0.30;0.30;;;;;;;17.08;54.98;96911.53;10330856;28;20034;-22
2022/04/17 20:33:01;;;;;;;0.30;0.30;;;;;;;17.07;55.18;96903.06;10329871;28;20051;-21
2022/04/17 20:38:01;;;;;;;0.30;0.30;;;;;;;17.25;58.05;96904.91;10329463;28;20038;-22
2022/04/17 20:50:32;;;;;;;0.40;0.40;;;;;;;17.34;57.79;96887.25;10328807;28;20480;-21
2022/04/17 20:53:38;;;;;;;0.30;0.30;;;;;;;17.18;55.07;96895.56;10327536;28;20062;-22
2022/04/17 20:58:38;;;;;;;0.20;0.20;;;;;;;17.12;55.44;96881.19;10328269;28;20026;-23
2022/04/17 21:03:39;;;;;;;0.20;0.20;;;;;;;17.10;55.28;96879.50;10327972;28;20061;-22
2022/04/17 21:08:39;;;;;;;0.30;0.30;;;;;;;17.09;55.07;96881.16;10334186;28;20296;-21
2022/04/17 21:13:40;;;;;;;0.40;0.40;;;;;;;17.08;55.29;96878.63;10367012;28;20186;-22
2022/04/17 21:18:40;;;;;;;0.30;0.23;;;;;;;17.07;55.17;96866.81;10359516;28;20641;-22
2022/04/17 21:23:41;;;;;;;0.30;0.30;;;;;;;17.06;55.28;96871.03;10327477;28;20277;-21
2022/04/17 21:28:41;;;;;;;0.37;0.37;;;;;;;17.06;55.10;96875.25;10327545;28;20293;-22
2022/04/17 21:33:41;;;;;;;0.40;0.37;;;;;;;17.05;55.17;96879.44;10326167;28;20038;-22
2022/04/17 21:38:42;;;;;;;0.50;0.40;;;;;;;17.05;55.16;96873.53;10327602;28;20080;-22
2022/04/17 21:43:42;;;;;;;0.20;0.20;;;;;;;17.05;55.32;96868.47;10326458;28;20038;-22
2022/04/17 21:48:42;;;;;;;0.30;0.30;;;;;;;17.28;57.45;96869.50;10326609;28;20113;-21
2022/04/17 21:53:43;;;;;;;0.30;0.30;;;;;;;17.33;57.31;96872.91;10327069;28;20035;-21
2022/04/17 21:58:43;;;;;;;0.30;0.30;;;;;;;17.23;55.47;96866.94;10325871;28;20031;-21
2022/04/17 22:09:03;;;;;;;0.40;0.40;;;;;;;17.11;55.37;96854.22;10336065;28;20068;-22
2022/04/17 22:14:03;;;;;;;0.20;0.20;;;;;;;17.08;55.22;96855.88;10339613;28;20058;-21
2022/04/17 22:19:04;;;;;;;0.32;0.32;;;;;;;16.96;55.52;96843.09;10337597;28;20117;-22
2022/04/17 22:24:05;;;;;;;0.57;0.40;;;;;;;17.02;55.82;96854.16;10367119;28;20030;-21
2022/04/17 22:29:05;;;;;;;0.40;0.40;;;;;;;17.04;55.46;96851.59;10344446;28;20026;-21
2022/04/17 22:34:06;;;;;;;0.37;0.37;;;;;;;17.04;55.67;96859.19;10336922;28;20042;-22
2022/04/17 22:39:07;;;;;;;0.60;0.40;;;;;;;17.05;55.26;96845.72;10366471;28;20669;-22
2022/04/17 22:44:07;;;;;;;0.37;0.37;;;;;;;17.06;55.36;96852.50;10351531;28;20034;-22
2022/04/17 22:49:07;;;;;;;0.30;0.30;;;;;;;17.05;55.36;96848.25;10344294;28;20054;-22
2022/04/17 22:54:08;;;;;;;0.30;0.30;;;;;;;17.20;57.33;96845.81;10373274;28;20501;-21
2022/04/17 22:59:08;;;;;;;0.32;0.32;;;;;;;17.33;57.87;96845.09;10359585;28;20030;-22
2022/04/17 23:04:09;;;;;;;0.30;0.30;;;;;;;17.37;55.76;96846.81;10331927;28;20030;-21
2022/04/17 23:09:09;;;;;;;0.28;0.28;;;;;;;17.19;55.35;96847.53;10343267;28;20307;-21
2022/04/17 23:14:10;;;;;;;0.43;0.30;;;;;;;17.13;55.38;96839.03;10350001;28;20045;-22
2022/04/17 23:19:10;;;;;;;0.40;0.37;;;;;;;17.06;55.42;96842.38;10343675;28;20052;-22
2022/04/17 23:24:10;;;;;;;0.27;0.27;;;;;;;17.06;55.39;96834.78;10372267;28;20038;-22
2022/04/17 23:29:12;;;;;;;0.30;0.30;;;;;;;17.04;55.35;96826.31;10350732;28;20030;-21
2022/04/17 23:34:12;;;;;;;0.20;0.20;;;;;;;17.05;55.27;96828.00;10330990;28;20556;-21
2022/04/17 23:39:12;;;;;;;0.30;0.30;;;;;;;17.07;55.37;96819.59;10331597;28;20034;-22
2022/04/17 23:44:13;;;;;;;0.30;0.30;;;;;;;17.05;55.23;96813.69;10354618;28;20037;-22
2022/04/17 23:49:13;;;;;;;0.30;0.25;;;;;;;17.04;55.45;96811.13;10357853;28;20092;-22
2022/04/17 23:54:14;;;;;;;0.27;0.20;;;;;;;17.05;55.49;96815.34;10329265;28;20042;-21
2022/04/17 23:59:14;;;;;;;0.20;0.20;;;;;;;17.05;55.27;96810.28;10329754;28;20034;-22
